Time;durP1;ratioP1;P1;durP2;ratioP2;P2;SDS_P1;SDS_P2;PMS_P1;PMS_P2;Temp;Humidity;BMP_temperature;BMP_pressure;BME280_temperature;BME280_humidity;BME280_pressure;Samples;Min_cycle;Max_cycle;Signal;HPM_P1;HPM_P2
2023/12/30 00:03:03;;;;;;;5.3;2.9;;;;;;;8.81;69.67;;;;;
2023/12/30 00:14:03;;;;;;;4.4;2.6;;;;;;;8.79;68.94;;;;;
2023/12/30 00:25:02;;;;;;;4.4;2.6;;;;;;;8.8;68.23;;;;;
2023/12/30 00:35:03;;;;;;;4.4;2.6;;;;;;;8.72;68.02;;;;;
2023/12/30 00:46:03;;;;;;;4.4;2.4;;;;;;;8.65;68.15;;;;;
2023/12/30 00:56:03;;;;;;;4.4;2.4;;;;;;;8.64;67.95;;;;;
2023/12/30 01:06:03;;;;;;;4.4;2.4;;;;;;;8.57;68.25;;;;;
2023/12/30 01:17:03;;;;;;;3.3;1.7;;;;;;;8.61;68.47;;;;;
2023/12/30 01:27:03;;;;;;;3.3;1.7;;;;;;;8.93;68.15;;;;;
2023/12/30 01:38:03;;;;;;;3.3;1.7;;;;;;;9.29;67.22;;;;;
2023/12/30 01:49:02;;;;;;;4.6;2.2;;;;;;;9.18;67.67;;;;;
2023/12/30 01:59:03;;;;;;;4.6;2.2;;;;;;;9.16;68.48;;;;;
2023/12/30 02:09:03;;;;;;;4.6;2.2;;;;;;;9.14;68.81;;;;;
2023/12/30 02:20:03;;;;;;;6.3;2.3;;;;;;;8.98;69.28;;;;;
2023/12/30 02:31:03;;;;;;;6.3;2.3;;;;;;;8.86;69.79;;;;;
2023/12/30 02:42:03;;;;;;;4.5;2.1;;;;;;;8.7;70.26;;;;;
2023/12/30 02:52:03;;;;;;;4.5;2.1;;;;;;;8.7;70.12;;;;;
2023/12/30 03:03:03;;;;;;;4.5;2.1;;;;;;;8.66;70.27;;;;;
2023/12/30 03:14:03;;;;;;;4.9;2.6;;;;;;;8.65;70.21;;;;;
2023/12/30 03:24:03;;;;;;;4.9;2.6;;;;;;;8.7;70.31;;;;;
2023/12/30 03:35:03;;;;;;;4.9;2.6;;;;;;;8.79;69.68;;;;;
2023/12/30 03:46:03;;;;;;;4.8;2.5;;;;;;;8.79;69.48;;;;;
2023/12/30 03:56:03;;;;;;;4.8;2.5;;;;;;;8.81;69.14;;;;;
2023/12/30 04:06:03;;;;;;;4.8;2.5;;;;;;;8.78;68.99;;;;;
2023/12/30 04:16:03;;;;;;;5.3;2.1;;;;;;;8.6;69.43;;;;;
2023/12/30 04:27:03;;;;;;;5.3;2.1;;;;;;;8.47;69.54;;;;;
2023/12/30 04:37:03;;;;;;;5.3;2.1;;;;;;;8.36;69.6;;;;;
2023/12/30 04:47:03;;;;;;;4.6;2.4;;;;;;;8.2;70.11;;;;;
2023/12/30 04:57:03;;;;;;;4.6;2.4;;;;;;;8.08;70.2;;;;;
2023/12/30 05:07:04;;;;;;;4.6;2.4;;;;;;;7.94;70.41;;;;;
2023/12/30 05:18:03;;;;;;;4.8;1.9;;;;;;;7.84;70.61;;;;;
2023/12/30 05:29:03;;;;;;;4.8;1.9;;;;;;;8.04;70.09;;;;;
2023/12/30 05:40:03;;;;;;;4.8;2;;;;;;;8.31;69.25;;;;;
2023/12/30 05:50:03;;;;;;;4.8;2;;;;;;;8.4;69.09;;;;;
2023/12/30 06:01:03;;;;;;;4.8;2;;;;;;;8.49;68.5;;;;;
2023/12/30 06:11:03;;;;;;;3.6;1.8;;;;;;;8.45;68.62;;;;;
2023/12/30 06:22:03;;;;;;;3.6;1.8;;;;;;;8.25;68.95;;;;;
2023/12/30 06:33:06;;;;;;;3.6;1.8;;;;;;;8.11;69.41;;;;;
2023/12/30 06:43:03;;;;;;;4;2;;;;;;;7.9;70.04;;;;;
2023/12/30 06:54:03;;;;;;;4;2;;;;;;;7.83;70.44;;;;;
2023/12/30 07:04:03;;;;;;;4;2;;;;;;;7.73;70.56;;;;;
2023/12/30 07:14:03;;;;;;;3.2;1.8;;;;;;;7.74;70.8;;;;;
2023/12/30 07:25:03;;;;;;;3.2;1.8;;;;;;;8.06;70.2;;;;;
2023/12/30 07:36:04;;;;;;;3.2;1.8;;;;;;;8.57;69.01;;;;;
2023/12/30 07:47:03;;;;;;;3.2;1.4;;;;;;;8.88;68.42;;;;;
2023/12/30 07:57:03;;;;;;;3.2;1.4;;;;;;;9.14;68.37;;;;;
2023/12/30 08:08:03;;;;;;;3.2;1.4;;;;;;;9.41;66.86;;;;;
2023/12/30 08:18:03;;;;;;;3.7;2;;;;;;;9.63;66.13;;;;;
2023/12/30 08:28:03;;;;;;;3.7;2;;;;;;;9.76;65.6;;;;;
2023/12/30 08:39:03;;;;;;;2.9;1.6;;;;;;;9.86;64.4;;;;;
2023/12/30 08:50:03;;;;;;;2.9;1.6;;;;;;;9.96;64.2;;;;;
2023/12/30 09:01:03;;;;;;;2.9;1.6;;;;;;;10.05;63.31;;;;;
2023/12/30 09:12:03;;;;;;;3.1;1.5;;;;;;;10.39;62.85;;;;;
2023/12/30 09:23:03;;;;;;;3.1;1.5;;;;;;;10.69;62;;;;;
2023/12/30 09:34:03;;;;;;;3.1;1.5;;;;;;;10.95;60.29;;;;;
2023/12/30 09:45:03;;;;;;;3.2;1.3;;;;;;;11.1;58.97;;;;;
2023/12/30 09:55:03;;;;;;;3.2;1.3;;;;;;;11.14;58.68;;;;;
2023/12/30 10:06:03;;;;;;;3.2;1.3;;;;;;;11.16;58.33;;;;;
2023/12/30 10:16:05;;;;;;;4.9;1.5;;;;;;;11.19;57.45;;;;;
2023/12/30 10:27:04;;;;;;;4.9;1.5;;;;;;;11.36;57.33;;;;;
2023/12/30 10:38:03;;;;;;;4.9;1.5;;;;;;;11.37;57.12;;;;;
2023/12/30 10:49:03;;;;;;;3.8;1.3;;;;;;;11.25;58.14;;;;;
2023/12/30 10:59:03;;;;;;;3.8;1.3;;;;;;;10.92;58.82;;;;;
2023/12/30 11:09:03;;;;;;;3.8;1.6;;;;;;;10.82;59.43;;;;;
2023/12/30 11:19:04;;;;;;;3.8;1.6;;;;;;;10.92;59.65;;;;;
2023/12/30 11:30:03;;;;;;;3.8;1.6;;;;;;;11.07;60.17;;;;;
2023/12/30 11:40:03;;;;;;;4;1.3;;;;;;;11.07;60.06;;;;;
2023/12/30 11:50:03;;;;;;;4;1.3;;;;;;;10.97;59.11;;;;;
2023/12/30 12:01:03;;;;;;;4;1.3;;;;;;;10.83;59.18;;;;;
2023/12/30 12:12:03;;;;;;;3.3;1.9;;;;;;;10.75;59.69;;;;;
2023/12/30 12:23:03;;;;;;;3.3;1.9;;;;;;;9.23;71.97;;;;;
2023/12/30 12:34:04;;;;;;;3.3;1.9;;;;;;;8.19;79.79;;;;;
2023/12/30 12:44:04;;;;;;;3.9;1.9;;;;;;;7.72;80.95;;;;;
2023/12/30 12:54:03;;;;;;;3.9;1.9;;;;;;;7.54;77.51;;;;;
2023/12/30 13:04:03;;;;;;;3.9;1.9;;;;;;;7.5;75.2;;;;;
2023/12/30 13:14:09;;;;;;;3.1;1.2;;;;;;;7.54;75.24;;;;;
2023/12/30 13:24:04;;;;;;;3.1;1.2;;;;;;;7.54;75.43;;;;;
2023/12/30 13:34:05;;;;;;;3.1;1.2;;;;;;;7.5;74.75;;;;;
2023/12/30 13:45:04;;;;;;;4.7;1.4;;;;;;;7.5;75.29;;;;;
2023/12/30 13:55:05;;;;;;;4.7;1.4;;;;;;;7.46;76.56;;;;;
2023/12/30 14:06:05;;;;;;;4.7;1.4;;;;;;;7.08;78.13;;;;;
2023/12/30 14:17:03;;;;;;;2;1.2;;;;;;;6.84;80.23;;;;;
2023/12/30 14:27:03;;;;;;;2;1.2;;;;;;;6.75;81.12;;;;;
2023/12/30 14:38:04;;;;;;;2;1.2;;;;;;;6.49;83.83;;;;;
2023/12/30 14:49:03;;;;;;;4.2;1.9;;;;;;;6.42;84.73;;;;;
2023/12/30 15:00:04;;;;;;;4.2;1.9;;;;;;;6.47;84.54;;;;;
2023/12/30 15:10:04;;;;;;;5.3;2.8;;;;;;;6.5;84.38;;;;;
2023/12/30 15:20:05;;;;;;;5.3;2.8;;;;;;;6.49;84.53;;;;;
2023/12/30 15:31:03;;;;;;;5.3;2.8;;;;;;;6.56;84.21;;;;;
2023/12/30 15:41:03;;;;;;;7;3.3;;;;;;;6.45;84.64;;;;;
2023/12/30 15:51:03;;;;;;;7;3.3;;;;;;;6.47;85.25;;;;;
2023/12/30 16:02:03;;;;;;;7;3.3;;;;;;;6.57;85.2;;;;;
2023/12/30 16:13:03;;;;;;;9.5;4.6;;;;;;;6.57;85.41;;;;;
2023/12/30 16:24:03;;;;;;;9.5;4.6;;;;;;;6.69;85.7;;;;;
2023/12/30 16:35:04;;;;;;;9.5;4.6;;;;;;;6.85;84.72;;;;;
2023/12/30 16:46:04;;;;;;;14;6.8;;;;;;;6.77;84.58;;;;;
2023/12/30 16:57:04;;;;;;;14;6.8;;;;;;;7.01;84.18;;;;;
2023/12/30 17:08:03;;;;;;;14.9;7.8;;;;;;;7.22;82.97;;;;;
2023/12/30 17:19:03;;;;;;;14.9;7.8;;;;;;;7.17;82.75;;;;;
2023/12/30 17:29:03;;;;;;;14.9;7.8;;;;;;;7.18;82.81;;;;;
2023/12/30 17:40:03;;;;;;;17.4;9.3;;;;;;;7.1;83.47;;;;;
2023/12/30 17:50:07;;;;;;;17.4;9.3;;;;;;;7.23;82.55;;;;;
2023/12/30 18:01:03;;;;;;;17.4;9.3;;;;;;;7.22;82.18;;;;;
2023/12/30 18:11:03;;;;;;;19.7;12;;;;;;;7.22;82.33;;;;;
2023/12/30 18:22:03;;;;;;;19.7;12;;;;;;;7.14;83.03;;;;;
2023/12/30 18:32:04;;;;;;;19.7;12;;;;;;;7.11;83.76;;;;;
2023/12/30 18:42:03;;;;;;;18;12.3;;;;;;;7.12;84.53;;;;;
2023/12/30 18:53:03;;;;;;;18;12.3;;;;;;;6.94;85.87;;;;;
2023/12/30 19:04:03;;;;;;;18;12.3;;;;;;;6.95;86.57;;;;;
2023/12/30 19:15:05;;;;;;;21.9;14;;;;;;;6.87;86.49;;;;;
2023/12/30 19:25:03;;;;;;;21.9;14;;;;;;;6.75;86.98;;;;;
2023/12/30 19:36:03;;;;;;;21.9;14;;;;;;;6.67;87.42;;;;;
2023/12/30 19:46:05;;;;;;;16.5;8.8;;;;;;;6.52;87.8;;;;;
2023/12/30 19:57:03;;;;;;;16.5;8.8;;;;;;;6.47;87.47;;;;;
2023/12/30 20:08:03;;;;;;;13.8;8;;;;;;;6.16;87.39;;;;;
2023/12/30 20:18:03;;;;;;;13.8;8;;;;;;;6.07;87.34;;;;;
2023/12/30 20:28:03;;;;;;;13.8;8;;;;;;;5.91;87.27;;;;;
2023/12/30 20:39:05;;;;;;;9.6;5.7;;;;;;;5.65;86.9;;;;;
2023/12/30 20:49:03;;;;;;;9.6;5.7;;;;;;;5.5;87.02;;;;;
2023/12/30 21:00:03;;;;;;;9.6;5.7;;;;;;;5.53;87.43;;;;;
2023/12/30 21:10:03;;;;;;;8.4;4;;;;;;;5.44;88.06;;;;;
2023/12/30 21:21:04;;;;;;;8.4;4;;;;;;;5.48;88.13;;;;;
2023/12/30 21:32:03;;;;;;;8.4;4;;;;;;;5.56;88.12;;;;;
2023/12/30 21:43:03;;;;;;;9.3;5.1;;;;;;;5.52;88.27;;;;;
2023/12/30 21:53:03;;;;;;;9.3;5.1;;;;;;;5.62;88.17;;;;;
2023/12/30 22:04:03;;;;;;;9.3;5.1;;;;;;;5.68;87.44;;;;;
2023/12/30 22:15:03;;;;;;;10.3;5.1;;;;;;;5.77;87.09;;;;;
2023/12/30 22:25:04;;;;;;;10.3;5.1;;;;;;;5.63;86.53;;;;;
2023/12/30 22:36:03;;;;;;;10.3;5.1;;;;;;;5.53;86.9;;;;;
2023/12/30 22:46:04;;;;;;;10.4;5;;;;;;;5.72;87.61;;;;;
2023/12/30 22:56:03;;;;;;;10.4;5;;;;;;;5.96;87.61;;;;;
2023/12/30 23:07:03;;;;;;;10.4;5;;;;;;;6.12;87.03;;;;;
2023/12/30 23:18:03;;;;;;;12;6.3;;;;;;;6.29;86.78;;;;;
2023/12/30 23:29:04;;;;;;;12;6.3;;;;;;;6.46;86.27;;;;;
2023/12/30 23:39:04;;;;;;;14;7.1;;;;;;;6.53;85.51;;;;;
2023/12/30 23:50:03;;;;;;;14;7.1;;;;;;;6.51;84.44;;;;;
